sensor_id;sensor_type;location;lat;lon;timestamp;P1;durP1;ratioP1;P2;durP2;ratioP2
59062;SDS011;44851;45.648;9.004;2023-06-14T00:01:45;29.73;;;26.03;;
59062;SDS011;44851;45.648;9.004;2023-06-14T00:04:10;27.13;;;23.93;;
59062;SDS011;44851;45.648;9.004;2023-06-14T00:06:41;28.83;;;25.83;;
59062;SDS011;44851;45.648;9.004;2023-06-14T00:09:11;27.77;;;24.97;;
59062;SDS011;44851;45.648;9.004;2023-06-14T00:11:42;26.53;;;23.80;;
59062;SDS011;44851;45.648;9.004;2023-06-14T00:14:08;27.33;;;24.33;;
59062;SDS011;44851;45.648;9.004;2023-06-14T00:16:33;27.93;;;25.13;;
59062;SDS011;44851;45.648;9.004;2023-06-14T00:19:00;27.73;;;24.83;;
59062;SDS011;44851;45.648;9.004;2023-06-14T00:21:28;27.33;;;24.60;;
59062;SDS011;44851;45.648;9.004;2023-06-14T00:23:54;26.90;;;24.20;;
59062;SDS011;44851;45.648;9.004;2023-06-14T00:26:20;27.13;;;24.33;;
59062;SDS011;44851;45.648;9.004;2023-06-14T00:28:46;28.10;;;24.83;;
59062;SDS011;44851;45.648;9.004;2023-06-14T00:31:11;28.07;;;25.07;;
59062;SDS011;44851;45.648;9.004;2023-06-14T00:33:36;28.90;;;24.80;;
59062;SDS011;44851;45.648;9.004;2023-06-14T00:36:02;27.33;;;24.53;;
59062;SDS011;44851;45.648;9.004;2023-06-14T00:38:27;27.17;;;24.47;;
59062;SDS011;44851;45.648;9.004;2023-06-14T00:40:53;27.33;;;24.67;;
59062;SDS011;44851;45.648;9.004;2023-06-14T00:43:18;27.17;;;24.23;;
59062;SDS011;44851;45.648;9.004;2023-06-14T00:45:44;28.10;;;25.30;;
59062;SDS011;44851;45.648;9.004;2023-06-14T00:48:09;27.10;;;24.20;;
59062;SDS011;44851;45.648;9.004;2023-06-14T00:50:36;26.97;;;24.37;;
59062;SDS011;44851;45.648;9.004;2023-06-14T00:53:03;23.90;;;21.60;;
59062;SDS011;44851;45.648;9.004;2023-06-14T00:55:29;18.10;;;16.20;;
59062;SDS011;44851;45.648;9.004;2023-06-14T00:57:55;11.10;;;10.00;;
59062;SDS011;44851;45.648;9.004;2023-06-14T01:00:21;9.43;;;8.53;;
59062;SDS011;44851;45.648;9.004;2023-06-14T01:02:47;10.63;;;8.37;;
59062;SDS011;44851;45.648;9.004;2023-06-14T01:05:14;9.90;;;8.73;;
59062;SDS011;44851;45.648;9.004;2023-06-14T01:07:43;12.33;;;10.47;;
59062;SDS011;44851;45.648;9.004;2023-06-14T01:15:57;9.00;;;7.40;;
59062;SDS011;44851;45.648;9.004;2023-06-14T01:18:24;7.23;;;6.50;;
59062;SDS011;44851;45.648;9.004;2023-06-14T01:20:50;6.30;;;5.73;;
59062;SDS011;44851;45.648;9.004;2023-06-14T01:23:20;6.90;;;5.70;;
59062;SDS011;44851;45.648;9.004;2023-06-14T01:25:46;5.13;;;4.60;;
59062;SDS011;44851;45.648;9.004;2023-06-14T01:28:17;7.23;;;6.53;;
59062;SDS011;44851;45.648;9.004;2023-06-14T01:30:44;9.50;;;8.50;;
59062;SDS011;44851;45.648;9.004;2023-06-14T01:33:16;13.23;;;9.10;;
59062;SDS011;44851;45.648;9.004;2023-06-14T01:35:46;10.53;;;9.53;;
59062;SDS011;44851;45.648;9.004;2023-06-14T01:38:13;11.43;;;10.23;;
59062;SDS011;44851;45.648;9.004;2023-06-14T01:40:40;11.30;;;10.13;;
59062;SDS011;44851;45.648;9.004;2023-06-14T01:43:08;12.23;;;11.13;;
59062;SDS011;44851;45.648;9.004;2023-06-14T01:45:35;13.37;;;12.07;;
59062;SDS011;44851;45.648;9.004;2023-06-14T01:48:02;14.07;;;12.67;;
59062;SDS011;44851;45.648;9.004;2023-06-14T01:50:28;13.27;;;12.00;;
59062;SDS011;44851;45.648;9.004;2023-06-14T01:52:55;14.87;;;13.27;;
59062;SDS011;44851;45.648;9.004;2023-06-14T01:55:20;13.23;;;11.93;;
59062;SDS011;44851;45.648;9.004;2023-06-14T01:57:47;16.00;;;13.00;;
59062;SDS011;44851;45.648;9.004;2023-06-14T02:00:13;14.03;;;12.60;;
59062;SDS011;44851;45.648;9.004;2023-06-14T02:02:40;14.03;;;12.63;;
59062;SDS011;44851;45.648;9.004;2023-06-14T02:05:06;13.90;;;12.50;;
59062;SDS011;44851;45.648;9.004;2023-06-14T02:07:31;14.33;;;13.07;;
59062;SDS011;44851;45.648;9.004;2023-06-14T02:09:57;14.30;;;12.87;;
59062;SDS011;44851;45.648;9.004;2023-06-14T02:12:22;14.90;;;13.50;;
59062;SDS011;44851;45.648;9.004;2023-06-14T02:14:47;14.97;;;13.57;;
59062;SDS011;44851;45.648;9.004;2023-06-14T02:17:13;15.83;;;14.43;;
59062;SDS011;44851;45.648;9.004;2023-06-14T02:19:39;16.67;;;15.07;;
59062;SDS011;44851;45.648;9.004;2023-06-14T02:22:05;16.77;;;15.17;;
59062;SDS011;44851;45.648;9.004;2023-06-14T02:24:31;17.00;;;15.30;;
59062;SDS011;44851;45.648;9.004;2023-06-14T02:26:57;16.80;;;15.03;;
59062;SDS011;44851;45.648;9.004;2023-06-14T02:29:22;15.47;;;13.97;;
59062;SDS011;44851;45.648;9.004;2023-06-14T02:31:48;14.43;;;12.97;;
59062;SDS011;44851;45.648;9.004;2023-06-14T02:34:14;17.17;;;14.60;;
59062;SDS011;44851;45.648;9.004;2023-06-14T02:36:41;15.93;;;14.43;;
59062;SDS011;44851;45.648;9.004;2023-06-14T02:39:07;16.70;;;15.07;;
59062;SDS011;44851;45.648;9.004;2023-06-14T02:41:36;16.43;;;14.73;;
59062;SDS011;44851;45.648;9.004;2023-06-14T02:44:02;16.70;;;15.07;;
59062;SDS011;44851;45.648;9.004;2023-06-14T02:46:27;15.33;;;13.93;;
59062;SDS011;44851;45.648;9.004;2023-06-14T02:48:53;14.33;;;12.73;;
59062;SDS011;44851;45.648;9.004;2023-06-14T02:51:18;14.37;;;13.00;;
59062;SDS011;44851;45.648;9.004;2023-06-14T02:53:44;15.40;;;13.80;;
59062;SDS011;44851;45.648;9.004;2023-06-14T02:56:10;15.53;;;14.03;;
59062;SDS011;44851;45.648;9.004;2023-06-14T02:58:36;16.97;;;15.27;;
59062;SDS011;44851;45.648;9.004;2023-06-14T03:01:02;15.33;;;13.93;;
59062;SDS011;44851;45.648;9.004;2023-06-14T03:03:28;15.30;;;13.90;;
59062;SDS011;44851;45.648;9.004;2023-06-14T03:05:53;14.43;;;13.07;;
59062;SDS011;44851;45.648;9.004;2023-06-14T03:08:19;14.27;;;12.77;;
59062;SDS011;44851;45.648;9.004;2023-06-14T03:10:48;14.00;;;12.60;;
59062;SDS011;44851;45.648;9.004;2023-06-14T03:13:16;13.03;;;11.83;;
59062;SDS011;44851;45.648;9.004;2023-06-14T03:15:42;13.40;;;12.10;;
59062;SDS011;44851;45.648;9.004;2023-06-14T03:18:10;12.40;;;11.20;;
59062;SDS011;44851;45.648;9.004;2023-06-14T03:20:37;11.17;;;10.17;;
59062;SDS011;44851;45.648;9.004;2023-06-14T03:23:02;10.83;;;9.47;;
59062;SDS011;44851;45.648;9.004;2023-06-14T03:25:29;10.33;;;9.20;;
59062;SDS011;44851;45.648;9.004;2023-06-14T03:27:55;10.83;;;8.80;;
59062;SDS011;44851;45.648;9.004;2023-06-14T03:30:21;9.47;;;8.60;;
59062;SDS011;44851;45.648;9.004;2023-06-14T03:32:47;9.50;;;8.53;;
59062;SDS011;44851;45.648;9.004;2023-06-14T03:35:12;8.60;;;7.80;;
59062;SDS011;44851;45.648;9.004;2023-06-14T03:37:42;7.90;;;7.00;;
59062;SDS011;44851;45.648;9.004;2023-06-14T03:40:11;7.80;;;7.00;;
59062;SDS011;44851;45.648;9.004;2023-06-14T03:42:38;7.90;;;7.20;;
59062;SDS011;44851;45.648;9.004;2023-06-14T03:45:04;6.97;;;6.30;;
59062;SDS011;44851;45.648;9.004;2023-06-14T03:47:30;7.70;;;7.00;;
59062;SDS011;44851;45.648;9.004;2023-06-14T03:49:55;7.60;;;7.00;;
59062;SDS011;44851;45.648;9.004;2023-06-14T03:52:21;7.90;;;7.20;;
59062;SDS011;44851;45.648;9.004;2023-06-14T03:54:48;7.77;;;7.13;;
59062;SDS011;44851;45.648;9.004;2023-06-14T03:57:13;8.77;;;7.93;;
59062;SDS011;44851;45.648;9.004;2023-06-14T03:59:39;9.67;;;8.73;;
59062;SDS011;44851;45.648;9.004;2023-06-14T04:02:06;9.23;;;8.40;;
59062;SDS011;44851;45.648;9.004;2023-06-14T04:04:32;8.77;;;7.87;;
59062;SDS011;44851;45.648;9.004;2023-06-14T04:06:58;10.07;;;8.93;;
59062;SDS011;44851;45.648;9.004;2023-06-14T04:09:25;9.50;;;8.63;;
59062;SDS011;44851;45.648;9.004;2023-06-14T04:11:54;9.30;;;8.50;;
59062;SDS011;44851;45.648;9.004;2023-06-14T04:14:19;10.07;;;9.07;;
59062;SDS011;44851;45.648;9.004;2023-06-14T04:16:46;11.10;;;9.93;;
59062;SDS011;44851;45.648;9.004;2023-06-14T04:19:12;9.73;;;8.83;;
59062;SDS011;44851;45.648;9.004;2023-06-14T04:21:37;9.80;;;8.97;;
59062;SDS011;44851;45.648;9.004;2023-06-14T04:24:03;10.47;;;9.47;;
59062;SDS011;44851;45.648;9.004;2023-06-14T04:26:28;10.40;;;9.30;;
59062;SDS011;44851;45.648;9.004;2023-06-14T04:28:55;10.70;;;9.60;;
59062;SDS011;44851;45.648;9.004;2023-06-14T04:31:22;10.43;;;9.47;;
59062;SDS011;44851;45.648;9.004;2023-06-14T04:33:50;10.07;;;9.07;;
59062;SDS011;44851;45.648;9.004;2023-06-14T04:36:18;10.23;;;9.23;;
59062;SDS011;44851;45.648;9.004;2023-06-14T04:38:44;10.20;;;9.30;;
59062;SDS011;44851;45.648;9.004;2023-06-14T04:41:10;10.63;;;9.70;;
59062;SDS011;44851;45.648;9.004;2023-06-14T04:43:36;10.97;;;9.97;;
59062;SDS011;44851;45.648;9.004;2023-06-14T04:46:06;9.80;;;8.80;;
59062;SDS011;44851;45.648;9.004;2023-06-14T04:48:39;9.80;;;8.90;;
59062;SDS011;44851;45.648;9.004;2023-06-14T04:51:08;10.50;;;9.50;;
59062;SDS011;44851;45.648;9.004;2023-06-14T04:53:34;10.17;;;9.27;;
59062;SDS011;44851;45.648;9.004;2023-06-14T04:56:00;10.53;;;9.53;;
59062;SDS011;44851;45.648;9.004;2023-06-14T04:58:26;10.07;;;9.07;;
59062;SDS011;44851;45.648;9.004;2023-06-14T05:00:54;9.43;;;8.60;;
59062;SDS011;44851;45.648;9.004;2023-06-14T05:03:24;9.13;;;8.33;;
59062;SDS011;44851;45.648;9.004;2023-06-14T05:05:50;9.73;;;8.77;;
59062;SDS011;44851;45.648;9.004;2023-06-14T05:08:18;9.63;;;8.73;;
59062;SDS011;44851;45.648;9.004;2023-06-14T05:10:43;9.67;;;8.43;;
59062;SDS011;44851;45.648;9.004;2023-06-14T05:13:09;9.47;;;8.60;;
59062;SDS011;44851;45.648;9.004;2023-06-14T05:15:35;9.70;;;8.70;;
59062;SDS011;44851;45.648;9.004;2023-06-14T05:18:01;9.23;;;8.33;;
59062;SDS011;44851;45.648;9.004;2023-06-14T05:20:27;10.27;;;9.37;;
59062;SDS011;44851;45.648;9.004;2023-06-14T05:22:53;9.43;;;8.63;;
59062;SDS011;44851;45.648;9.004;2023-06-14T05:25:19;9.07;;;8.27;;
59062;SDS011;44851;45.648;9.004;2023-06-14T05:27:46;8.90;;;8.10;;
59062;SDS011;44851;45.648;9.004;2023-06-14T05:30:11;9.03;;;8.17;;
59062;SDS011;44851;45.648;9.004;2023-06-14T05:32:38;8.10;;;7.27;;
59062;SDS011;44851;45.648;9.004;2023-06-14T05:35:03;8.00;;;7.30;;
59062;SDS011;44851;45.648;9.004;2023-06-14T05:37:29;7.50;;;6.90;;
59062;SDS011;44851;45.648;9.004;2023-06-14T05:39:55;6.53;;;6.00;;
59062;SDS011;44851;45.648;9.004;2023-06-14T05:42:21;6.60;;;5.93;;
59062;SDS011;44851;45.648;9.004;2023-06-14T05:44:46;10.80;;;9.43;;
59062;SDS011;44851;45.648;9.004;2023-06-14T05:47:12;8.10;;;7.30;;
59062;SDS011;44851;45.648;9.004;2023-06-14T05:49:37;7.20;;;6.50;;
59062;SDS011;44851;45.648;9.004;2023-06-14T05:52:03;6.93;;;6.23;;
59062;SDS011;44851;45.648;9.004;2023-06-14T05:54:28;7.50;;;5.60;;
59062;SDS011;44851;45.648;9.004;2023-06-14T05:56:54;5.70;;;5.20;;
59062;SDS011;44851;45.648;9.004;2023-06-14T05:59:19;10.70;;;8.20;;
59062;SDS011;44851;45.648;9.004;2023-06-14T06:01:45;10.87;;;8.53;;
59062;SDS011;44851;45.648;9.004;2023-06-14T06:04:11;10.43;;;7.27;;
59062;SDS011;44851;45.648;9.004;2023-06-14T06:06:36;7.93;;;6.07;;
59062;SDS011;44851;45.648;9.004;2023-06-14T06:09:02;6.60;;;5.60;;
59062;SDS011;44851;45.648;9.004;2023-06-14T06:11:28;5.87;;;5.37;;
59062;SDS011;44851;45.648;9.004;2023-06-14T06:13:53;6.40;;;5.23;;
59062;SDS011;44851;45.648;9.004;2023-06-14T06:16:18;5.43;;;5.03;;
59062;SDS011;44851;45.648;9.004;2023-06-14T06:18:44;7.07;;;6.37;;
59062;SDS011;44851;45.648;9.004;2023-06-14T06:21:09;6.73;;;6.03;;
59062;SDS011;44851;45.648;9.004;2023-06-14T06:23:35;6.70;;;5.77;;
59062;SDS011;44851;45.648;9.004;2023-06-14T06:26:00;6.10;;;5.07;;
59062;SDS011;44851;45.648;9.004;2023-06-14T06:28:26;6.57;;;5.53;;
59062;SDS011;44851;45.648;9.004;2023-06-14T06:30:51;13.27;;;6.77;;
59062;SDS011;44851;45.648;9.004;2023-06-14T06:33:18;8.87;;;6.10;;
59062;SDS011;44851;45.648;9.004;2023-06-14T06:35:44;6.90;;;6.20;;
59062;SDS011;44851;45.648;9.004;2023-06-14T06:38:09;7.43;;;5.90;;
59062;SDS011;44851;45.648;9.004;2023-06-14T06:40:35;7.50;;;6.17;;
59062;SDS011;44851;45.648;9.004;2023-06-14T06:43:01;7.07;;;6.37;;
59062;SDS011;44851;45.648;9.004;2023-06-14T06:45:28;6.43;;;5.83;;
59062;SDS011;44851;45.648;9.004;2023-06-14T06:47:53;6.77;;;6.07;;
59062;SDS011;44851;45.648;9.004;2023-06-14T06:50:20;6.70;;;6.10;;
59062;SDS011;44851;45.648;9.004;2023-06-14T06:52:48;6.77;;;6.07;;
59062;SDS011;44851;45.648;9.004;2023-06-14T06:55:13;6.30;;;5.80;;
59062;SDS011;44851;45.648;9.004;2023-06-14T06:57:39;8.37;;;6.13;;
59062;SDS011;44851;45.648;9.004;2023-06-14T07:00:05;7.73;;;5.67;;
59062;SDS011;44851;45.648;9.004;2023-06-14T07:02:35;6.90;;;6.20;;
59062;SDS011;44851;45.648;9.004;2023-06-14T07:05:01;6.57;;;5.93;;
59062;SDS011;44851;45.648;9.004;2023-06-14T07:07:27;8.50;;;6.07;;
59062;SDS011;44851;45.648;9.004;2023-06-14T07:09:52;13.37;;;6.90;;
59062;SDS011;44851;45.648;9.004;2023-06-14T07:12:17;5.47;;;4.97;;
59062;SDS011;44851;45.648;9.004;2023-06-14T07:14:43;6.23;;;5.50;;
59062;SDS011;44851;45.648;9.004;2023-06-14T07:17:08;22.47;;;8.40;;
59062;SDS011;44851;45.648;9.004;2023-06-14T07:19:34;19.27;;;7.33;;
59062;SDS011;44851;45.648;9.004;2023-06-14T07:22:00;10.60;;;5.63;;
59062;SDS011;44851;45.648;9.004;2023-06-14T07:24:25;9.33;;;5.60;;
59062;SDS011;44851;45.648;9.004;2023-06-14T07:26:53;6.07;;;5.40;;
59062;SDS011;44851;45.648;9.004;2023-06-14T07:29:18;8.03;;;6.10;;
59062;SDS011;44851;45.648;9.004;2023-06-14T07:31:45;6.83;;;6.13;;
59062;SDS011;44851;45.648;9.004;2023-06-14T07:34:10;7.83;;;6.93;;
59062;SDS011;44851;45.648;9.004;2023-06-14T07:36:36;7.10;;;6.47;;
59062;SDS011;44851;45.648;9.004;2023-06-14T07:39:02;7.07;;;6.40;;
59062;SDS011;44851;45.648;9.004;2023-06-14T07:41:28;25.07;;;17.50;;
59062;SDS011;44851;45.648;9.004;2023-06-14T07:43:54;17.00;;;11.60;;
59062;SDS011;44851;45.648;9.004;2023-06-14T07:46:20;9.80;;;8.80;;
59062;SDS011;44851;45.648;9.004;2023-06-14T07:48:45;8.50;;;7.40;;
59062;SDS011;44851;45.648;9.004;2023-06-14T07:51:11;9.93;;;7.87;;
59062;SDS011;44851;45.648;9.004;2023-06-14T07:53:36;8.50;;;6.90;;
59062;SDS011;44851;45.648;9.004;2023-06-14T07:56:02;6.90;;;6.30;;
59062;SDS011;44851;45.648;9.004;2023-06-14T07:58:27;7.30;;;6.43;;
59062;SDS011;44851;45.648;9.004;2023-06-14T08:00:53;19.77;;;8.23;;
59062;SDS011;44851;45.648;9.004;2023-06-14T08:03:18;34.07;;;11.10;;
59062;SDS011;44851;45.648;9.004;2023-06-14T08:05:44;15.07;;;7.27;;
59062;SDS011;44851;45.648;9.004;2023-06-14T08:08:10;7.57;;;6.87;;
59062;SDS011;44851;45.648;9.004;2023-06-14T08:10:35;7.03;;;6.43;;
59062;SDS011;44851;45.648;9.004;2023-06-14T08:13:01;6.83;;;6.13;;
59062;SDS011;44851;45.648;9.004;2023-06-14T08:15:26;7.37;;;6.77;;
59062;SDS011;44851;45.648;9.004;2023-06-14T08:17:52;9.63;;;7.13;;
59062;SDS011;44851;45.648;9.004;2023-06-14T08:20:18;8.17;;;7.37;;
59062;SDS011;44851;45.648;9.004;2023-06-14T08:22:43;12.40;;;9.63;;
59062;SDS011;44851;45.648;9.004;2023-06-14T08:25:11;11.73;;;9.87;;
59062;SDS011;44851;45.648;9.004;2023-06-14T08:27:37;9.87;;;8.93;;
59062;SDS011;44851;45.648;9.004;2023-06-14T08:30:02;9.70;;;8.73;;
59062;SDS011;44851;45.648;9.004;2023-06-14T08:32:28;11.70;;;9.67;;
59062;SDS011;44851;45.648;9.004;2023-06-14T08:34:54;11.17;;;9.80;;
59062;SDS011;44851;45.648;9.004;2023-06-14T08:37:19;11.60;;;10.37;;
59062;SDS011;44851;45.648;9.004;2023-06-14T08:39:45;9.50;;;8.43;;
59062;SDS011;44851;45.648;9.004;2023-06-14T08:42:11;9.03;;;8.13;;
59062;SDS011;44851;45.648;9.004;2023-06-14T08:44:39;12.23;;;9.07;;
59062;SDS011;44851;45.648;9.004;2023-06-14T08:47:05;11.87;;;8.10;;
59062;SDS011;44851;45.648;9.004;2023-06-14T08:49:33;9.53;;;8.70;;
59062;SDS011;44851;45.648;9.004;2023-06-14T08:51:59;8.17;;;7.37;;
59062;SDS011;44851;45.648;9.004;2023-06-14T08:54:29;8.80;;;8.00;;
59062;SDS011;44851;45.648;9.004;2023-06-14T08:57:00;10.60;;;8.00;;
59062;SDS011;44851;45.648;9.004;2023-06-14T08:59:27;11.27;;;8.90;;
59062;SDS011;44851;45.648;9.004;2023-06-14T09:01:53;9.63;;;8.80;;
59062;SDS011;44851;45.648;9.004;2023-06-14T09:04:23;11.77;;;8.73;;
59062;SDS011;44851;45.648;9.004;2023-06-14T09:06:53;10.70;;;9.50;;
59062;SDS011;44851;45.648;9.004;2023-06-14T09:09:20;10.93;;;9.60;;
59062;SDS011;44851;45.648;9.004;2023-06-14T09:11:46;10.43;;;8.67;;
59062;SDS011;44851;45.648;9.004;2023-06-14T09:14:12;9.93;;;9.03;;
59062;SDS011;44851;45.648;9.004;2023-06-14T09:16:37;8.30;;;7.50;;
59062;SDS011;44851;45.648;9.004;2023-06-14T09:19:02;8.87;;;7.97;;
59062;SDS011;44851;45.648;9.004;2023-06-14T09:21:28;9.13;;;8.20;;
59062;SDS011;44851;45.648;9.004;2023-06-14T09:23:59;9.37;;;8.47;;
59062;SDS011;44851;45.648;9.004;2023-06-14T09:26:25;7.47;;;6.73;;
59062;SDS011;44851;45.648;9.004;2023-06-14T09:28:52;7.23;;;6.30;;
59062;SDS011;44851;45.648;9.004;2023-06-14T09:31:18;7.63;;;7.00;;
59062;SDS011;44851;45.648;9.004;2023-06-14T09:33:46;10.90;;;9.60;;
59062;SDS011;44851;45.648;9.004;2023-06-14T09:36:22;8.23;;;7.40;;
59062;SDS011;44851;45.648;9.004;2023-06-14T09:38:57;7.80;;;6.90;;
59062;SDS011;44851;45.648;9.004;2023-06-14T09:41:36;7.30;;;6.50;;
59062;SDS011;44851;45.648;9.004;2023-06-14T09:44:04;7.07;;;6.30;;
59062;SDS011;44851;45.648;9.004;2023-06-14T09:46:31;8.00;;;7.20;;
59062;SDS011;44851;45.648;9.004;2023-06-14T09:49:00;6.10;;;5.47;;
59062;SDS011;44851;45.648;9.004;2023-06-14T09:51:27;6.20;;;5.20;;
59062;SDS011;44851;45.648;9.004;2023-06-14T09:53:55;5.77;;;5.27;;
59062;SDS011;44851;45.648;9.004;2023-06-14T09:56:26;7.83;;;5.63;;
59062;SDS011;44851;45.648;9.004;2023-06-14T09:58:58;6.73;;;5.97;;
59062;SDS011;44851;45.648;9.004;2023-06-14T10:01:24;5.80;;;5.20;;
59062;SDS011;44851;45.648;9.004;2023-06-14T10:04:01;8.23;;;7.53;;
59062;SDS011;44851;45.648;9.004;2023-06-14T10:06:29;7.53;;;6.93;;
59062;SDS011;44851;45.648;9.004;2023-06-14T10:08:58;6.47;;;5.80;;
59062;SDS011;44851;45.648;9.004;2023-06-14T10:11:28;6.70;;;6.07;;
59062;SDS011;44851;45.648;9.004;2023-06-14T10:13:57;5.20;;;4.80;;
59062;SDS011;44851;45.648;9.004;2023-06-14T10:16:34;12.73;;;8.73;;
59062;SDS011;44851;45.648;9.004;2023-06-14T10:19:10;7.73;;;6.67;;
59062;SDS011;44851;45.648;9.004;2023-06-14T10:22:04;7.03;;;6.40;;
59062;SDS011;44851;45.648;9.004;2023-06-14T10:24:37;6.77;;;5.77;;
59062;SDS011;44851;45.648;9.004;2023-06-14T10:27:06;7.17;;;6.47;;
59062;SDS011;44851;45.648;9.004;2023-06-14T10:30:02;6.80;;;6.10;;
59062;SDS011;44851;45.648;9.004;2023-06-14T10:32:21;6.30;;;5.53;;
59062;SDS011;44851;45.648;9.004;2023-06-14T10:34:59;5.87;;;5.00;;
59062;SDS011;44851;45.648;9.004;2023-06-14T10:37:26;6.40;;;5.67;;
59062;SDS011;44851;45.648;9.004;2023-06-14T10:39:51;7.97;;;5.07;;
59062;SDS011;44851;45.648;9.004;2023-06-14T10:42:18;5.73;;;5.20;;
59062;SDS011;44851;45.648;9.004;2023-06-14T10:44:54;6.03;;;5.43;;
59062;SDS011;44851;45.648;9.004;2023-06-14T10:47:28;8.43;;;6.07;;
59062;SDS011;44851;45.648;9.004;2023-06-14T10:49:57;5.43;;;4.93;;
59062;SDS011;44851;45.648;9.004;2023-06-14T10:52:32;6.20;;;5.60;;
59062;SDS011;44851;45.648;9.004;2023-06-14T10:55:10;7.13;;;5.57;;
59062;SDS011;44851;45.648;9.004;2023-06-14T10:58:00;5.97;;;5.07;;
59062;SDS011;44851;45.648;9.004;2023-06-14T11:00:27;5.47;;;4.97;;
59062;SDS011;44851;45.648;9.004;2023-06-14T11:05:50;7.17;;;5.20;;
59062;SDS011;44851;45.648;9.004;2023-06-14T11:11:09;6.37;;;5.50;;
59062;SDS011;44851;45.648;9.004;2023-06-14T11:13:38;6.60;;;5.73;;
59062;SDS011;44851;45.648;9.004;2023-06-14T11:16:14;6.37;;;5.77;;
59062;SDS011;44851;45.648;9.004;2023-06-14T11:18:41;8.00;;;6.40;;
59062;SDS011;44851;45.648;9.004;2023-06-14T11:21:09;5.27;;;4.87;;
59062;SDS011;44851;45.648;9.004;2023-06-14T11:23:35;5.50;;;5.03;;
59062;SDS011;44851;45.648;9.004;2023-06-14T11:26:01;7.20;;;5.83;;
59062;SDS011;44851;45.648;9.004;2023-06-14T11:28:39;6.10;;;5.50;;
59062;SDS011;44851;45.648;9.004;2023-06-14T11:31:06;6.37;;;5.73;;
59062;SDS011;44851;45.648;9.004;2023-06-14T11:33:32;6.40;;;5.83;;
59062;SDS011;44851;45.648;9.004;2023-06-14T11:35:58;6.00;;;5.40;;
59062;SDS011;44851;45.648;9.004;2023-06-14T11:38:24;7.80;;;6.20;;
59062;SDS011;44851;45.648;9.004;2023-06-14T11:40:51;5.83;;;5.27;;
59062;SDS011;44851;45.648;9.004;2023-06-14T11:43:16;10.10;;;5.80;;
59062;SDS011;44851;45.648;9.004;2023-06-14T11:45:42;10.93;;;9.67;;
59062;SDS011;44851;45.648;9.004;2023-06-14T11:48:07;11.00;;;9.07;;
59062;SDS011;44851;45.648;9.004;2023-06-14T11:50:33;10.33;;;8.83;;
59062;SDS011;44851;45.648;9.004;2023-06-14T11:53:03;8.53;;;6.77;;
59062;SDS011;44851;45.648;9.004;2023-06-14T11:55:35;6.40;;;5.80;;
59062;SDS011;44851;45.648;9.004;2023-06-14T11:58:04;6.60;;;5.87;;
59062;SDS011;44851;45.648;9.004;2023-06-14T12:00:30;6.17;;;5.53;;
59062;SDS011;44851;45.648;9.004;2023-06-14T12:02:56;6.07;;;5.20;;
59062;SDS011;44851;45.648;9.004;2023-06-14T12:05:22;6.60;;;5.80;;
59062;SDS011;44851;45.648;9.004;2023-06-14T12:07:48;6.83;;;6.13;;
59062;SDS011;44851;45.648;9.004;2023-06-14T12:10:15;6.67;;;6.07;;
59062;SDS011;44851;45.648;9.004;2023-06-14T12:12:42;6.47;;;5.83;;
59062;SDS011;44851;45.648;9.004;2023-06-14T12:15:08;7.07;;;6.03;;
59062;SDS011;44851;45.648;9.004;2023-06-14T12:17:36;6.97;;;6.20;;
59062;SDS011;44851;45.648;9.004;2023-06-14T12:20:06;7.23;;;5.93;;
59062;SDS011;44851;45.648;9.004;2023-06-14T12:22:38;6.63;;;5.90;;
59062;SDS011;44851;45.648;9.004;2023-06-14T12:25:27;7.37;;;6.67;;
59062;SDS011;44851;45.648;9.004;2023-06-14T12:27:56;6.40;;;5.73;;
59062;SDS011;44851;45.648;9.004;2023-06-14T12:30:22;7.40;;;6.13;;
59062;SDS011;44851;45.648;9.004;2023-06-14T12:32:47;9.07;;;6.40;;
59062;SDS011;44851;45.648;9.004;2023-06-14T12:35:13;13.83;;;7.73;;
59062;SDS011;44851;45.648;9.004;2023-06-14T12:37:40;11.13;;;7.03;;
59062;SDS011;44851;45.648;9.004;2023-06-14T12:40:06;7.10;;;6.50;;
59062;SDS011;44851;45.648;9.004;2023-06-14T12:42:32;7.93;;;7.13;;
59062;SDS011;44851;45.648;9.004;2023-06-14T12:44:59;7.43;;;6.47;;
59062;SDS011;44851;45.648;9.004;2023-06-14T12:47:24;7.13;;;5.67;;
59062;SDS011;44851;45.648;9.004;2023-06-14T12:49:50;6.80;;;6.20;;
59062;SDS011;44851;45.648;9.004;2023-06-14T12:52:15;7.60;;;6.47;;
59062;SDS011;44851;45.648;9.004;2023-06-14T12:54:41;19.17;;;8.60;;
59062;SDS011;44851;45.648;9.004;2023-06-14T12:57:06;9.90;;;6.77;;
59062;SDS011;44851;45.648;9.004;2023-06-14T12:59:32;6.97;;;6.17;;
59062;SDS011;44851;45.648;9.004;2023-06-14T13:01:59;15.83;;;12.67;;
59062;SDS011;44851;45.648;9.004;2023-06-14T13:04:35;6.80;;;6.23;;
59062;SDS011;44851;45.648;9.004;2023-06-14T13:07:01;7.23;;;6.37;;
59062;SDS011;44851;45.648;9.004;2023-06-14T13:09:26;6.77;;;6.17;;
59062;SDS011;44851;45.648;9.004;2023-06-14T13:11:52;7.20;;;6.13;;
59062;SDS011;44851;45.648;9.004;2023-06-14T13:14:17;6.60;;;6.00;;
59062;SDS011;44851;45.648;9.004;2023-06-14T13:16:43;6.37;;;5.77;;
59062;SDS011;44851;45.648;9.004;2023-06-14T13:19:09;7.70;;;6.37;;
59062;SDS011;44851;45.648;9.004;2023-06-14T13:21:34;7.33;;;6.20;;
59062;SDS011;44851;45.648;9.004;2023-06-14T13:23:59;7.40;;;6.60;;
59062;SDS011;44851;45.648;9.004;2023-06-14T13:26:25;8.07;;;7.23;;
59062;SDS011;44851;45.648;9.004;2023-06-14T13:28:51;7.10;;;6.50;;
59062;SDS011;44851;45.648;9.004;2023-06-14T13:31:17;8.60;;;7.90;;
59062;SDS011;44851;45.648;9.004;2023-06-14T13:33:42;9.17;;;8.40;;
59062;SDS011;44851;45.648;9.004;2023-06-14T13:36:08;8.23;;;7.20;;
59062;SDS011;44851;45.648;9.004;2023-06-14T13:38:33;9.20;;;8.40;;
59062;SDS011;44851;45.648;9.004;2023-06-14T13:40:59;8.30;;;7.33;;
59062;SDS011;44851;45.648;9.004;2023-06-14T13:43:24;8.27;;;7.10;;
59062;SDS011;44851;45.648;9.004;2023-06-14T13:45:50;9.97;;;8.83;;
59062;SDS011;44851;45.648;9.004;2023-06-14T13:48:15;9.20;;;8.33;;
59062;SDS011;44851;45.648;9.004;2023-06-14T13:50:40;10.77;;;8.60;;
59062;SDS011;44851;45.648;9.004;2023-06-14T13:53:06;9.00;;;8.10;;
59062;SDS011;44851;45.648;9.004;2023-06-14T13:55:31;9.77;;;8.33;;
59062;SDS011;44851;45.648;9.004;2023-06-14T13:57:58;10.70;;;9.77;;
59062;SDS011;44851;45.648;9.004;2023-06-14T14:00:23;10.13;;;9.13;;
59062;SDS011;44851;45.648;9.004;2023-06-14T14:02:48;12.03;;;9.80;;
59062;SDS011;44851;45.648;9.004;2023-06-14T14:05:15;10.37;;;9.40;;
59062;SDS011;44851;45.648;9.004;2023-06-14T14:07:41;9.53;;;8.63;;
59062;SDS011;44851;45.648;9.004;2023-06-14T14:10:07;11.23;;;9.83;;
59062;SDS011;44851;45.648;9.004;2023-06-14T14:12:33;10.57;;;8.67;;
59062;SDS011;44851;45.648;9.004;2023-06-14T14:14:59;13.53;;;10.73;;
59062;SDS011;44851;45.648;9.004;2023-06-14T14:17:24;9.33;;;8.33;;
59062;SDS011;44851;45.648;9.004;2023-06-14T14:19:50;9.27;;;8.27;;
59062;SDS011;44851;45.648;9.004;2023-06-14T14:22:15;11.07;;;9.03;;
59062;SDS011;44851;45.648;9.004;2023-06-14T14:24:41;10.67;;;9.57;;
59062;SDS011;44851;45.648;9.004;2023-06-14T14:27:06;10.37;;;9.30;;
59062;SDS011;44851;45.648;9.004;2023-06-14T14:29:32;10.27;;;9.37;;
59062;SDS011;44851;45.648;9.004;2023-06-14T14:31:58;13.33;;;8.50;;
59062;SDS011;44851;45.648;9.004;2023-06-14T14:34:24;9.70;;;8.67;;
59062;SDS011;44851;45.648;9.004;2023-06-14T14:36:50;9.97;;;8.97;;
59062;SDS011;44851;45.648;9.004;2023-06-14T14:39:15;10.00;;;8.97;;
59062;SDS011;44851;45.648;9.004;2023-06-14T14:41:41;11.57;;;10.43;;
59062;SDS011;44851;45.648;9.004;2023-06-14T14:44:06;10.30;;;9.40;;
59062;SDS011;44851;45.648;9.004;2023-06-14T14:46:32;10.37;;;9.37;;
59062;SDS011;44851;45.648;9.004;2023-06-14T14:48:58;10.43;;;9.43;;
59062;SDS011;44851;45.648;9.004;2023-06-14T14:51:25;10.07;;;9.07;;